createdAt,value
2022-12-08T00:04:04.440Z,98143.40
2022-12-08T00:14:33.687Z,98143.91
2022-12-08T00:25:01.254Z,98147.73
2022-12-08T00:35:28.909Z,98150.18
2022-12-08T00:45:56.373Z,98162.88
2022-12-08T00:56:24.272Z,98165.99
2022-12-08T01:06:51.726Z,98181.02
2022-12-08T01:17:19.203Z,98186.28
2022-12-08T01:27:46.612Z,98191.29
2022-12-08T01:38:14.195Z,98187.20
2022-12-08T01:48:41.754Z,98182.42
2022-12-08T01:59:09.626Z,98178.63
2022-12-08T02:09:37.923Z,98185.06
2022-12-08T02:20:34.475Z,98177.64
2022-12-08T02:31:12.384Z,98166.09
2022-12-08T02:41:47.700Z,98172.77
2022-12-08T02:52:43.091Z,98182.20
2022-12-08T03:03:20.678Z,98178.81
2022-12-08T03:13:52.592Z,98178.86
2022-12-08T03:24:21.101Z,98168.53
2022-12-08T03:34:50.595Z,98168.52
2022-12-08T03:45:18.168Z,98163.02
2022-12-08T03:55:45.957Z,98156.16
2022-12-08T04:06:13.771Z,98160.90
2022-12-08T04:16:41.374Z,98162.77
2022-12-08T04:27:08.781Z,98156.02
2022-12-08T04:37:36.180Z,98150.99
2022-12-08T04:48:04.019Z,98147.56
2022-12-08T04:58:31.564Z,98142.06
2022-12-08T05:08:58.980Z,98141.93
2022-12-08T05:19:26.650Z,98136.48
2022-12-08T05:29:54.033Z,98138.56
2022-12-08T05:40:21.635Z,98144.89
2022-12-08T05:50:51.150Z,98147.95
2022-12-08T06:01:27.592Z,98152.70
2022-12-08T06:11:54.960Z,98153.16
2022-12-08T06:22:22.338Z,98151.80
2022-12-08T06:32:49.763Z,98163.73
2022-12-08T06:43:17.238Z,98175.79
2022-12-08T06:53:45.539Z,98187.07
2022-12-08T07:04:13.013Z,98193.85
2022-12-08T07:14:40.468Z,98192.50
2022-12-08T07:25:09.197Z,98186.52
2022-12-08T07:35:35.501Z,98185.46
2022-12-08T07:46:03.531Z,98185.16
2022-12-08T07:56:31.177Z,98181.40
2022-12-08T08:06:58.595Z,98189.27
2022-12-08T08:17:26.143Z,98187.21
2022-12-08T08:27:53.744Z,98177.69
2022-12-08T08:38:21.588Z,98173.91
2022-12-08T08:48:49.538Z,98175.23
2022-12-08T08:59:17.527Z,98180.15
2022-12-08T09:09:45.054Z,98178.79
2022-12-08T09:20:13.122Z,98175.45
2022-12-08T09:30:40.598Z,98164.79
2022-12-08T09:41:19.014Z,98156.86
2022-12-08T09:51:47.393Z,98140.09
2022-12-08T10:02:24.416Z,98135.00
2022-12-08T10:12:59.704Z,98135.38
2022-12-08T10:23:32.969Z,98133.83
2022-12-08T10:34:02.608Z,98124.70
2022-12-08T10:44:30.676Z,98119.22
2022-12-08T10:55:03.101Z,98118.20
2022-12-08T11:05:33.574Z,98114.57
2022-12-08T11:16:01.049Z,98110.44
2022-12-08T11:26:33.328Z,98103.19
2022-12-08T11:37:02.335Z,98103.09
2022-12-08T11:47:35.614Z,98105.06
2022-12-08T11:58:14.389Z,98101.91
2022-12-08T12:08:51.574Z,98097.06
2022-12-08T12:19:21.682Z,98095.42
2022-12-08T12:29:55.952Z,98086.36
2022-12-08T12:40:26.534Z,98082.05
2022-12-08T12:50:55.580Z,98073.61
2022-12-08T13:01:53.526Z,98073.48
2022-12-08T13:12:28.035Z,98072.45
2022-12-08T13:23:27.113Z,98066.02
2022-12-08T13:33:53.157Z,98063.14
2022-12-08T14:06:15.473Z,98057.50
2022-12-08T14:16:51.276Z,98063.13
2022-12-08T14:27:22.740Z,98062.83
2022-12-08T14:37:53.190Z,98063.19
2022-12-08T14:48:29.076Z,98065.81
2022-12-08T14:59:08.684Z,98065.81
2022-12-08T15:09:39.650Z,98068.05
2022-12-08T15:20:33.210Z,98062.55
2022-12-08T15:31:02.448Z,98057.91
2022-12-08T15:41:29.997Z,98050.16
2022-12-08T15:52:08.038Z,98046.00
2022-12-08T16:03:13.025Z,98035.15
2022-12-08T16:14:16.663Z,98033.92
2022-12-08T16:24:33.060Z,98033.23
2022-12-08T16:35:01.283Z,98024.81
2022-12-08T16:45:31.098Z,98021.54
2022-12-08T16:55:58.488Z,98016.68
2022-12-08T17:06:26.028Z,98014.61
2022-12-08T17:16:53.756Z,98010.66
2022-12-08T17:27:21.537Z,98009.98
2022-12-08T17:37:49.179Z,98009.10
2022-12-08T17:48:17.504Z,98013.20
2022-12-08T17:58:49.857Z,98009.07
2022-12-08T18:09:23.075Z,98004.38
2022-12-08T18:19:50.647Z,98000.95
2022-12-08T18:30:20.722Z,97994.11
2022-12-08T18:40:48.143Z,97984.83
2022-12-08T18:51:17.102Z,97976.91
2022-12-08T19:01:44.915Z,97971.40
2022-12-08T19:12:13.350Z,97970.53
2022-12-08T19:22:40.787Z,97976.05
2022-12-08T19:33:08.249Z,97980.70
2022-12-08T19:43:52.866Z,97983.10
2022-12-08T19:54:20.423Z,97978.81
2022-12-08T20:04:47.871Z,97971.39
2022-12-08T20:15:15.876Z,97970.69
2022-12-08T20:25:45.244Z,97971.73
2022-12-08T20:36:18.832Z,97964.48
2022-12-08T20:46:49.536Z,97968.08
2022-12-08T20:57:17.261Z,97969.84
2022-12-08T21:07:45.018Z,97967.77
2022-12-08T21:18:12.654Z,97968.80
2022-12-08T21:28:40.375Z,97970.19
2022-12-08T21:39:12.818Z,97983.27
2022-12-08T21:49:40.537Z,97980.87
2022-12-08T22:00:10.679Z,97975.02
2022-12-08T22:10:38.788Z,97967.94
2022-12-08T22:21:11.306Z,97963.80
2022-12-08T22:31:38.935Z,97957.60
2022-12-08T22:42:06.904Z,97956.91
2022-12-08T22:52:34.586Z,97960.19
2022-12-08T23:03:02.376Z,97961.90
2022-12-08T23:13:29.851Z,97959.15
2022-12-08T23:23:57.269Z,97955.00
2022-12-08T23:34:24.929Z,97946.89
2022-12-08T23:44:52.836Z,97938.46
2022-12-08T23:55:21.148Z,97938.29
